sensor_id;sensor_type;location;lat;lon;timestamp;P1;durP1;ratioP1;P2;durP2;ratioP2
1479;SDS011;732;51.698;4.886;2023-11-19T00:00:39;16.73;;;7.73;;
1479;SDS011;732;51.698;4.886;2023-11-19T00:03:18;18.80;;;8.50;;
1479;SDS011;732;51.698;4.886;2023-11-19T00:05:47;21.20;;;8.60;;
1479;SDS011;732;51.698;4.886;2023-11-19T00:08:17;19.40;;;7.77;;
1479;SDS011;732;51.698;4.886;2023-11-19T00:10:45;18.50;;;8.03;;
1479;SDS011;732;51.698;4.886;2023-11-19T00:13:14;16.27;;;7.63;;
1479;SDS011;732;51.698;4.886;2023-11-19T00:15:42;20.13;;;7.80;;
1479;SDS011;732;51.698;4.886;2023-11-19T00:18:11;17.13;;;7.43;;
1479;SDS011;732;51.698;4.886;2023-11-19T00:20:40;25.03;;;7.30;;
1479;SDS011;732;51.698;4.886;2023-11-19T00:23:11;28.10;;;7.67;;
1479;SDS011;732;51.698;4.886;2023-11-19T00:25:43;24.70;;;7.40;;
1479;SDS011;732;51.698;4.886;2023-11-19T00:28:11;20.57;;;8.63;;
1479;SDS011;732;51.698;4.886;2023-11-19T00:30:40;24.40;;;7.07;;
1479;SDS011;732;51.698;4.886;2023-11-19T00:33:08;13.93;;;6.60;;
1479;SDS011;732;51.698;4.886;2023-11-19T00:35:37;17.27;;;6.57;;
1479;SDS011;732;51.698;4.886;2023-11-19T00:38:06;26.63;;;6.80;;
1479;SDS011;732;51.698;4.886;2023-11-19T00:40:34;21.73;;;6.50;;
1479;SDS011;732;51.698;4.886;2023-11-19T00:43:04;16.60;;;5.63;;
1479;SDS011;732;51.698;4.886;2023-11-19T00:45:33;25.07;;;6.47;;
1479;SDS011;732;51.698;4.886;2023-11-19T00:48:02;23.10;;;5.80;;
1479;SDS011;732;51.698;4.886;2023-11-19T00:50:30;21.90;;;5.83;;
1479;SDS011;732;51.698;4.886;2023-11-19T00:53:04;23.93;;;7.00;;
1479;SDS011;732;51.698;4.886;2023-11-19T00:55:32;25.00;;;5.33;;
1479;SDS011;732;51.698;4.886;2023-11-19T00:58:13;26.00;;;5.90;;
1479;SDS011;732;51.698;4.886;2023-11-19T01:00:43;18.47;;;5.47;;
1479;SDS011;732;51.698;4.886;2023-11-19T01:03:12;17.07;;;5.40;;
1479;SDS011;732;51.698;4.886;2023-11-19T01:05:41;22.53;;;5.97;;
1479;SDS011;732;51.698;4.886;2023-11-19T01:08:11;28.60;;;6.40;;
1479;SDS011;732;51.698;4.886;2023-11-19T01:10:39;21.53;;;6.40;;
1479;SDS011;732;51.698;4.886;2023-11-19T01:13:08;23.13;;;5.70;;
1479;SDS011;732;51.698;4.886;2023-11-19T01:15:38;27.33;;;7.57;;
1479;SDS011;732;51.698;4.886;2023-11-19T01:18:07;27.63;;;6.20;;
1479;SDS011;732;51.698;4.886;2023-11-19T01:20:36;24.57;;;6.87;;
1479;SDS011;732;51.698;4.886;2023-11-19T01:23:05;35.27;;;6.23;;
1479;SDS011;732;51.698;4.886;2023-11-19T01:25:34;43.27;;;6.90;;
1479;SDS011;732;51.698;4.886;2023-11-19T01:28:04;31.30;;;5.97;;
1479;SDS011;732;51.698;4.886;2023-11-19T01:30:33;28.47;;;5.80;;
1479;SDS011;732;51.698;4.886;2023-11-19T01:33:03;26.40;;;6.87;;
1479;SDS011;732;51.698;4.886;2023-11-19T01:35:34;28.20;;;7.00;;
1479;SDS011;732;51.698;4.886;2023-11-19T01:38:02;28.27;;;7.03;;
1479;SDS011;732;51.698;4.886;2023-11-19T01:40:30;31.40;;;5.87;;
1479;SDS011;732;51.698;4.886;2023-11-19T01:42:59;30.43;;;5.93;;
1479;SDS011;732;51.698;4.886;2023-11-19T01:45:28;37.20;;;6.73;;
1479;SDS011;732;51.698;4.886;2023-11-19T01:48:00;31.97;;;7.53;;
1479;SDS011;732;51.698;4.886;2023-11-19T01:50:32;36.13;;;7.20;;
1479;SDS011;732;51.698;4.886;2023-11-19T01:53:02;31.97;;;6.90;;
1479;SDS011;732;51.698;4.886;2023-11-19T01:55:30;33.33;;;7.53;;
1479;SDS011;732;51.698;4.886;2023-11-19T01:58:00;43.57;;;9.00;;
1479;SDS011;732;51.698;4.886;2023-11-19T02:00:30;37.70;;;7.10;;
1479;SDS011;732;51.698;4.886;2023-11-19T02:03:00;35.53;;;6.83;;
1479;SDS011;732;51.698;4.886;2023-11-19T02:05:31;40.53;;;8.53;;
1479;SDS011;732;51.698;4.886;2023-11-19T02:08:00;50.97;;;9.43;;
1479;SDS011;732;51.698;4.886;2023-11-19T02:10:29;49.80;;;8.00;;
1479;SDS011;732;51.698;4.886;2023-11-19T02:12:59;51.30;;;8.03;;
1479;SDS011;732;51.698;4.886;2023-11-19T02:15:32;36.97;;;7.23;;
1479;SDS011;732;51.698;4.886;2023-11-19T02:18:19;54.27;;;9.27;;
1479;SDS011;732;51.698;4.886;2023-11-19T02:20:50;41.53;;;9.43;;
1479;SDS011;732;51.698;4.886;2023-11-19T02:23:19;46.03;;;8.03;;
1479;SDS011;732;51.698;4.886;2023-11-19T02:25:53;36.27;;;7.60;;
1479;SDS011;732;51.698;4.886;2023-11-19T02:28:33;37.20;;;8.27;;
1479;SDS011;732;51.698;4.886;2023-11-19T02:31:04;35.50;;;8.30;;
1479;SDS011;732;51.698;4.886;2023-11-19T02:33:36;46.50;;;9.27;;
1479;SDS011;732;51.698;4.886;2023-11-19T02:36:06;39.33;;;9.07;;
1479;SDS011;732;51.698;4.886;2023-11-19T02:38:36;57.77;;;10.33;;
1479;SDS011;732;51.698;4.886;2023-11-19T02:41:05;41.73;;;8.43;;
1479;SDS011;732;51.698;4.886;2023-11-19T02:43:37;41.70;;;9.43;;
1479;SDS011;732;51.698;4.886;2023-11-19T02:46:06;44.93;;;9.40;;
1479;SDS011;732;51.698;4.886;2023-11-19T02:48:37;50.17;;;9.67;;
1479;SDS011;732;51.698;4.886;2023-11-19T02:51:06;41.90;;;9.20;;
1479;SDS011;732;51.698;4.886;2023-11-19T02:53:37;47.23;;;8.87;;
1479;SDS011;732;51.698;4.886;2023-11-19T02:56:07;42.40;;;8.33;;
1479;SDS011;732;51.698;4.886;2023-11-19T02:58:47;52.43;;;9.93;;
1479;SDS011;732;51.698;4.886;2023-11-19T03:01:21;44.17;;;9.00;;
1479;SDS011;732;51.698;4.886;2023-11-19T03:03:57;37.97;;;8.00;;
1479;SDS011;732;51.698;4.886;2023-11-19T03:06:28;30.87;;;7.70;;
1479;SDS011;732;51.698;4.886;2023-11-19T03:08:57;46.73;;;9.13;;
1479;SDS011;732;51.698;4.886;2023-11-19T03:11:25;49.10;;;8.43;;
1479;SDS011;732;51.698;4.886;2023-11-19T03:13:55;62.47;;;10.80;;
1479;SDS011;732;51.698;4.886;2023-11-19T03:16:23;45.67;;;9.13;;
1479;SDS011;732;51.698;4.886;2023-11-19T03:18:52;39.93;;;8.43;;
1479;SDS011;732;51.698;4.886;2023-11-19T03:21:26;47.47;;;9.97;;
1479;SDS011;732;51.698;4.886;2023-11-19T03:23:56;37.53;;;8.30;;
1479;SDS011;732;51.698;4.886;2023-11-19T03:26:26;41.13;;;7.80;;
1479;SDS011;732;51.698;4.886;2023-11-19T03:28:56;40.03;;;8.23;;
1479;SDS011;732;51.698;4.886;2023-11-19T03:31:25;36.83;;;7.73;;
1479;SDS011;732;51.698;4.886;2023-11-19T03:33:53;35.93;;;8.80;;
1479;SDS011;732;51.698;4.886;2023-11-19T03:36:25;43.40;;;8.30;;
1479;SDS011;732;51.698;4.886;2023-11-19T03:38:59;40.10;;;8.23;;
1479;SDS011;732;51.698;4.886;2023-11-19T03:41:28;36.30;;;7.90;;
1479;SDS011;732;51.698;4.886;2023-11-19T03:44:09;38.40;;;7.60;;
1479;SDS011;732;51.698;4.886;2023-11-19T03:46:37;37.27;;;8.63;;
1479;SDS011;732;51.698;4.886;2023-11-19T03:49:05;42.43;;;8.83;;
1479;SDS011;732;51.698;4.886;2023-11-19T03:51:36;40.10;;;7.93;;
1479;SDS011;732;51.698;4.886;2023-11-19T03:54:05;56.07;;;9.30;;
1479;SDS011;732;51.698;4.886;2023-11-19T03:56:34;44.53;;;9.00;;
1479;SDS011;732;51.698;4.886;2023-11-19T03:59:03;50.07;;;9.23;;
1479;SDS011;732;51.698;4.886;2023-11-19T04:01:33;41.30;;;8.30;;
1479;SDS011;732;51.698;4.886;2023-11-19T04:04:03;40.40;;;10.23;;
1479;SDS011;732;51.698;4.886;2023-11-19T04:06:32;51.57;;;9.47;;
1479;SDS011;732;51.698;4.886;2023-11-19T04:09:01;45.73;;;8.90;;
1479;SDS011;732;51.698;4.886;2023-11-19T04:11:29;42.70;;;8.43;;
1479;SDS011;732;51.698;4.886;2023-11-19T04:13:59;57.77;;;7.90;;
1479;SDS011;732;51.698;4.886;2023-11-19T04:16:27;38.90;;;8.57;;
1479;SDS011;732;51.698;4.886;2023-11-19T04:18:59;43.67;;;9.40;;
1479;SDS011;732;51.698;4.886;2023-11-19T04:21:28;41.67;;;7.63;;
1479;SDS011;732;51.698;4.886;2023-11-19T04:23:57;47.57;;;8.73;;
1479;SDS011;732;51.698;4.886;2023-11-19T04:26:25;33.37;;;7.60;;
1479;SDS011;732;51.698;4.886;2023-11-19T04:28:57;40.77;;;7.37;;
1479;SDS011;732;51.698;4.886;2023-11-19T04:31:28;54.57;;;8.50;;
1479;SDS011;732;51.698;4.886;2023-11-19T04:33:59;42.10;;;7.57;;
1479;SDS011;732;51.698;4.886;2023-11-19T04:36:28;56.23;;;9.40;;
1479;SDS011;732;51.698;4.886;2023-11-19T04:38:56;44.30;;;8.97;;
1479;SDS011;732;51.698;4.886;2023-11-19T04:41:25;40.50;;;8.53;;
1479;SDS011;732;51.698;4.886;2023-11-19T04:43:55;51.87;;;7.93;;
1479;SDS011;732;51.698;4.886;2023-11-19T04:46:23;42.13;;;7.90;;
1479;SDS011;732;51.698;4.886;2023-11-19T04:48:52;55.27;;;11.17;;
1479;SDS011;732;51.698;4.886;2023-11-19T04:51:21;44.67;;;8.40;;
1479;SDS011;732;51.698;4.886;2023-11-19T04:53:50;40.90;;;9.07;;
1479;SDS011;732;51.698;4.886;2023-11-19T04:56:18;40.63;;;7.97;;
1479;SDS011;732;51.698;4.886;2023-11-19T04:58:49;40.63;;;8.50;;
1479;SDS011;732;51.698;4.886;2023-11-19T05:01:17;49.20;;;9.03;;
1479;SDS011;732;51.698;4.886;2023-11-19T05:03:46;49.90;;;10.37;;
1479;SDS011;732;51.698;4.886;2023-11-19T05:06:14;43.33;;;9.53;;
1479;SDS011;732;51.698;4.886;2023-11-19T05:08:44;48.57;;;9.50;;
1479;SDS011;732;51.698;4.886;2023-11-19T05:11:12;40.30;;;8.33;;
1479;SDS011;732;51.698;4.886;2023-11-19T05:13:44;46.87;;;8.97;;
1479;SDS011;732;51.698;4.886;2023-11-19T05:16:13;46.67;;;8.70;;
1479;SDS011;732;51.698;4.886;2023-11-19T05:18:41;50.57;;;8.90;;
1479;SDS011;732;51.698;4.886;2023-11-19T05:21:10;51.90;;;9.90;;
1479;SDS011;732;51.698;4.886;2023-11-19T05:23:38;51.60;;;8.73;;
1479;SDS011;732;51.698;4.886;2023-11-19T05:26:09;48.53;;;8.83;;
1479;SDS011;732;51.698;4.886;2023-11-19T05:28:45;42.07;;;7.57;;
1479;SDS011;732;51.698;4.886;2023-11-19T05:31:13;38.37;;;9.53;;
1479;SDS011;732;51.698;4.886;2023-11-19T05:33:44;45.70;;;8.03;;
1479;SDS011;732;51.698;4.886;2023-11-19T05:36:13;37.40;;;8.70;;
1479;SDS011;732;51.698;4.886;2023-11-19T05:38:41;48.23;;;8.93;;
1479;SDS011;732;51.698;4.886;2023-11-19T05:41:12;47.57;;;8.90;;
1479;SDS011;732;51.698;4.886;2023-11-19T05:43:41;49.00;;;9.03;;
1479;SDS011;732;51.698;4.886;2023-11-19T05:46:09;59.63;;;10.27;;
1479;SDS011;732;51.698;4.886;2023-11-19T05:48:42;46.83;;;10.27;;
1479;SDS011;732;51.698;4.886;2023-11-19T05:51:14;46.57;;;9.67;;
1479;SDS011;732;51.698;4.886;2023-11-19T05:53:43;54.83;;;8.90;;
1479;SDS011;732;51.698;4.886;2023-11-19T05:56:15;46.73;;;9.17;;
1479;SDS011;732;51.698;4.886;2023-11-19T05:58:48;55.50;;;9.70;;
1479;SDS011;732;51.698;4.886;2023-11-19T06:01:17;49.60;;;9.00;;
1479;SDS011;732;51.698;4.886;2023-11-19T06:03:45;39.80;;;8.43;;
1479;SDS011;732;51.698;4.886;2023-11-19T06:06:16;60.50;;;10.77;;
1479;SDS011;732;51.698;4.886;2023-11-19T06:08:45;47.77;;;8.63;;
1479;SDS011;732;51.698;4.886;2023-11-19T06:11:13;36.47;;;8.00;;
1479;SDS011;732;51.698;4.886;2023-11-19T06:13:46;40.77;;;9.23;;
1479;SDS011;732;51.698;4.886;2023-11-19T06:16:16;51.37;;;9.17;;
1479;SDS011;732;51.698;4.886;2023-11-19T06:18:45;50.97;;;9.40;;
1479;SDS011;732;51.698;4.886;2023-11-19T06:21:14;48.03;;;7.60;;
1479;SDS011;732;51.698;4.886;2023-11-19T06:23:42;49.00;;;8.93;;
1479;SDS011;732;51.698;4.886;2023-11-19T06:26:11;51.83;;;8.73;;
1479;SDS011;732;51.698;4.886;2023-11-19T06:28:42;58.97;;;10.17;;
1479;SDS011;732;51.698;4.886;2023-11-19T06:31:13;43.10;;;7.93;;
1479;SDS011;732;51.698;4.886;2023-11-19T06:33:43;47.60;;;7.80;;
1479;SDS011;732;51.698;4.886;2023-11-19T06:36:13;38.80;;;9.40;;
1479;SDS011;732;51.698;4.886;2023-11-19T06:38:43;45.80;;;8.90;;
1479;SDS011;732;51.698;4.886;2023-11-19T06:41:11;56.07;;;10.00;;
1479;SDS011;732;51.698;4.886;2023-11-19T06:43:39;44.43;;;9.47;;
1479;SDS011;732;51.698;4.886;2023-11-19T06:46:16;44.57;;;7.90;;
1479;SDS011;732;51.698;4.886;2023-11-19T06:48:45;33.40;;;6.67;;
1479;SDS011;732;51.698;4.886;2023-11-19T06:51:13;42.53;;;8.87;;
1479;SDS011;732;51.698;4.886;2023-11-19T06:53:42;36.90;;;8.53;;
1479;SDS011;732;51.698;4.886;2023-11-19T06:56:19;44.97;;;9.00;;
1479;SDS011;732;51.698;4.886;2023-11-19T06:58:50;46.43;;;8.80;;
1479;SDS011;732;51.698;4.886;2023-11-19T07:01:19;38.60;;;8.60;;
1479;SDS011;732;51.698;4.886;2023-11-19T07:03:47;36.10;;;8.10;;
1479;SDS011;732;51.698;4.886;2023-11-19T07:06:17;40.10;;;9.30;;
1479;SDS011;732;51.698;4.886;2023-11-19T07:08:59;43.57;;;9.17;;
1479;SDS011;732;51.698;4.886;2023-11-19T07:11:35;51.07;;;9.00;;
1479;SDS011;732;51.698;4.886;2023-11-19T07:14:07;41.53;;;7.67;;
1479;SDS011;732;51.698;4.886;2023-11-19T07:16:36;44.73;;;7.57;;
1479;SDS011;732;51.698;4.886;2023-11-19T07:19:05;39.30;;;8.70;;
1479;SDS011;732;51.698;4.886;2023-11-19T07:21:34;44.30;;;9.70;;
1479;SDS011;732;51.698;4.886;2023-11-19T07:24:06;44.10;;;9.30;;
1479;SDS011;732;51.698;4.886;2023-11-19T07:26:34;39.17;;;8.40;;
1479;SDS011;732;51.698;4.886;2023-11-19T07:29:04;32.70;;;8.03;;
1479;SDS011;732;51.698;4.886;2023-11-19T07:31:35;40.23;;;8.67;;
1479;SDS011;732;51.698;4.886;2023-11-19T07:34:04;47.73;;;7.90;;
1479;SDS011;732;51.698;4.886;2023-11-19T07:36:33;45.03;;;9.10;;
1479;SDS011;732;51.698;4.886;2023-11-19T07:39:02;36.27;;;6.97;;
1479;SDS011;732;51.698;4.886;2023-11-19T07:41:31;50.90;;;10.47;;
1479;SDS011;732;51.698;4.886;2023-11-19T07:44:04;35.97;;;6.83;;
1479;SDS011;732;51.698;4.886;2023-11-19T07:46:33;39.93;;;8.40;;
1479;SDS011;732;51.698;4.886;2023-11-19T07:49:03;42.07;;;8.13;;
1479;SDS011;732;51.698;4.886;2023-11-19T07:51:31;53.93;;;9.67;;
1479;SDS011;732;51.698;4.886;2023-11-19T07:53:59;42.20;;;8.47;;
1479;SDS011;732;51.698;4.886;2023-11-19T07:56:28;33.30;;;8.83;;
1479;SDS011;732;51.698;4.886;2023-11-19T07:58:56;39.33;;;8.03;;
1479;SDS011;732;51.698;4.886;2023-11-19T08:01:25;34.17;;;8.30;;
1479;SDS011;732;51.698;4.886;2023-11-19T08:03:53;43.03;;;8.87;;
1479;SDS011;732;51.698;4.886;2023-11-19T08:06:26;41.07;;;8.43;;
1479;SDS011;732;51.698;4.886;2023-11-19T08:08:54;33.60;;;7.10;;
1479;SDS011;732;51.698;4.886;2023-11-19T08:11:23;42.97;;;6.93;;
1479;SDS011;732;51.698;4.886;2023-11-19T08:13:51;41.77;;;8.10;;
1479;SDS011;732;51.698;4.886;2023-11-19T08:16:20;42.17;;;7.27;;
1479;SDS011;732;51.698;4.886;2023-11-19T08:18:48;39.73;;;9.13;;
1479;SDS011;732;51.698;4.886;2023-11-19T08:21:17;39.40;;;9.17;;
1479;SDS011;732;51.698;4.886;2023-11-19T08:23:47;41.63;;;8.10;;
1479;SDS011;732;51.698;4.886;2023-11-19T08:26:15;39.70;;;8.43;;
1479;SDS011;732;51.698;4.886;2023-11-19T08:28:47;39.37;;;9.30;;
1479;SDS011;732;51.698;4.886;2023-11-19T08:31:15;36.50;;;9.83;;
1479;SDS011;732;51.698;4.886;2023-11-19T08:33:44;39.83;;;8.57;;
1479;SDS011;732;51.698;4.886;2023-11-19T08:36:15;34.93;;;7.40;;
1479;SDS011;732;51.698;4.886;2023-11-19T08:38:44;36.93;;;7.73;;
1479;SDS011;732;51.698;4.886;2023-11-19T08:41:15;45.20;;;9.60;;
1479;SDS011;732;51.698;4.886;2023-11-19T08:43:44;38.60;;;8.63;;
1479;SDS011;732;51.698;4.886;2023-11-19T08:46:13;40.57;;;8.20;;
1479;SDS011;732;51.698;4.886;2023-11-19T08:48:41;38.47;;;8.20;;
1479;SDS011;732;51.698;4.886;2023-11-19T08:51:10;34.47;;;7.40;;
1479;SDS011;732;51.698;4.886;2023-11-19T08:53:38;37.60;;;8.27;;
1479;SDS011;732;51.698;4.886;2023-11-19T08:56:07;27.43;;;6.70;;
1479;SDS011;732;51.698;4.886;2023-11-19T08:58:37;39.07;;;7.70;;
1479;SDS011;732;51.698;4.886;2023-11-19T09:01:06;37.83;;;5.50;;
1479;SDS011;732;51.698;4.886;2023-11-19T09:03:36;41.60;;;8.20;;
1479;SDS011;732;51.698;4.886;2023-11-19T09:06:05;46.97;;;7.77;;
1479;SDS011;732;51.698;4.886;2023-11-19T09:08:33;39.07;;;8.00;;
1479;SDS011;732;51.698;4.886;2023-11-19T09:11:06;40.40;;;7.70;;
1479;SDS011;732;51.698;4.886;2023-11-19T09:13:37;35.30;;;7.10;;
1479;SDS011;732;51.698;4.886;2023-11-19T09:16:06;43.10;;;9.20;;
1479;SDS011;732;51.698;4.886;2023-11-19T09:18:35;45.07;;;7.63;;
1479;SDS011;732;51.698;4.886;2023-11-19T09:21:04;45.17;;;8.83;;
1479;SDS011;732;51.698;4.886;2023-11-19T09:23:33;34.47;;;7.20;;
1479;SDS011;732;51.698;4.886;2023-11-19T09:26:05;40.50;;;8.10;;
1479;SDS011;732;51.698;4.886;2023-11-19T09:28:38;37.67;;;7.43;;
1479;SDS011;732;51.698;4.886;2023-11-19T09:31:12;44.70;;;8.40;;
1479;SDS011;732;51.698;4.886;2023-11-19T09:33:41;32.20;;;9.17;;
1479;SDS011;732;51.698;4.886;2023-11-19T09:36:11;42.47;;;7.40;;
1479;SDS011;732;51.698;4.886;2023-11-19T09:38:41;33.63;;;6.60;;
1479;SDS011;732;51.698;4.886;2023-11-19T09:41:09;40.13;;;8.03;;
1479;SDS011;732;51.698;4.886;2023-11-19T09:43:41;38.00;;;8.03;;
1479;SDS011;732;51.698;4.886;2023-11-19T09:46:10;38.93;;;8.93;;
1479;SDS011;732;51.698;4.886;2023-11-19T09:48:42;33.40;;;6.40;;
1479;SDS011;732;51.698;4.886;2023-11-19T09:51:12;36.40;;;7.53;;
1479;SDS011;732;51.698;4.886;2023-11-19T09:53:40;43.17;;;8.33;;
1479;SDS011;732;51.698;4.886;2023-11-19T09:56:09;41.93;;;7.77;;
1479;SDS011;732;51.698;4.886;2023-11-19T09:58:42;54.43;;;8.33;;
1479;SDS011;732;51.698;4.886;2023-11-19T10:01:10;38.13;;;6.80;;
1479;SDS011;732;51.698;4.886;2023-11-19T10:03:42;50.93;;;7.93;;
1479;SDS011;732;51.698;4.886;2023-11-19T10:06:14;34.97;;;8.20;;
1479;SDS011;732;51.698;4.886;2023-11-19T10:08:44;46.90;;;7.70;;
1479;SDS011;732;51.698;4.886;2023-11-19T10:11:13;35.13;;;7.90;;
1479;SDS011;732;51.698;4.886;2023-11-19T10:13:43;30.83;;;6.40;;
1479;SDS011;732;51.698;4.886;2023-11-19T10:16:14;32.83;;;8.20;;
1479;SDS011;732;51.698;4.886;2023-11-19T10:18:44;40.03;;;6.43;;
1479;SDS011;732;51.698;4.886;2023-11-19T10:21:13;41.73;;;8.00;;
1479;SDS011;732;51.698;4.886;2023-11-19T10:23:50;34.80;;;6.80;;
1479;SDS011;732;51.698;4.886;2023-11-19T10:26:20;33.43;;;7.40;;
1479;SDS011;732;51.698;4.886;2023-11-19T10:28:50;29.27;;;8.00;;
1479;SDS011;732;51.698;4.886;2023-11-19T10:31:19;36.83;;;7.30;;
1479;SDS011;732;51.698;4.886;2023-11-19T10:33:51;35.93;;;6.90;;
1479;SDS011;732;51.698;4.886;2023-11-19T10:36:20;36.07;;;6.70;;
1479;SDS011;732;51.698;4.886;2023-11-19T10:38:53;32.00;;;7.90;;
1479;SDS011;732;51.698;4.886;2023-11-19T10:41:27;31.90;;;7.40;;
1479;SDS011;732;51.698;4.886;2023-11-19T10:43:58;39.10;;;9.07;;
1479;SDS011;732;51.698;4.886;2023-11-19T10:46:37;35.00;;;7.63;;
1479;SDS011;732;51.698;4.886;2023-11-19T10:49:07;41.37;;;7.93;;
1479;SDS011;732;51.698;4.886;2023-11-19T10:51:37;39.03;;;6.97;;
1479;SDS011;732;51.698;4.886;2023-11-19T10:54:12;33.73;;;7.07;;
1479;SDS011;732;51.698;4.886;2023-11-19T10:56:47;29.63;;;7.10;;
1479;SDS011;732;51.698;4.886;2023-11-19T10:59:23;36.90;;;7.83;;
1479;SDS011;732;51.698;4.886;2023-11-19T11:01:58;43.33;;;6.90;;
1479;SDS011;732;51.698;4.886;2023-11-19T11:04:37;37.10;;;7.70;;
1479;SDS011;732;51.698;4.886;2023-11-19T11:07:08;30.30;;;6.60;;
1479;SDS011;732;51.698;4.886;2023-11-19T11:09:37;23.97;;;6.70;;
1479;SDS011;732;51.698;4.886;2023-11-19T11:12:06;26.97;;;5.60;;
1479;SDS011;732;51.698;4.886;2023-11-19T11:14:39;28.17;;;4.67;;
1479;SDS011;732;51.698;4.886;2023-11-19T11:17:09;29.13;;;6.00;;
1479;SDS011;732;51.698;4.886;2023-11-19T11:19:41;28.83;;;5.33;;
1479;SDS011;732;51.698;4.886;2023-11-19T11:22:10;26.00;;;5.00;;
1479;SDS011;732;51.698;4.886;2023-11-19T11:24:54;29.13;;;6.63;;
1479;SDS011;732;51.698;4.886;2023-11-19T11:27:46;29.10;;;5.83;;
1479;SDS011;732;51.698;4.886;2023-11-19T11:30:39;32.93;;;6.70;;
1479;SDS011;732;51.698;4.886;2023-11-19T11:33:25;34.03;;;7.17;;
1479;SDS011;732;51.698;4.886;2023-11-19T11:36:11;29.93;;;6.50;;
1479;SDS011;732;51.698;4.886;2023-11-19T11:38:47;39.43;;;6.57;;
1479;SDS011;732;51.698;4.886;2023-11-19T11:41:20;31.97;;;6.93;;
1479;SDS011;732;51.698;4.886;2023-11-19T11:43:54;42.53;;;7.33;;
1479;SDS011;732;51.698;4.886;2023-11-19T11:49:27;26.90;;;6.20;;
1479;SDS011;732;51.698;4.886;2023-11-19T11:51:58;24.50;;;5.80;;
1479;SDS011;732;51.698;4.886;2023-11-19T11:54:28;26.30;;;5.00;;
1479;SDS011;732;51.698;4.886;2023-11-19T11:57:05;27.23;;;6.30;;
1479;SDS011;732;51.698;4.886;2023-11-19T11:59:46;26.53;;;6.00;;
1479;SDS011;732;51.698;4.886;2023-11-19T12:02:20;27.80;;;6.57;;
1479;SDS011;732;51.698;4.886;2023-11-19T12:04:51;35.93;;;5.70;;
1479;SDS011;732;51.698;4.886;2023-11-19T12:07:21;36.63;;;7.30;;
1479;SDS011;732;51.698;4.886;2023-11-19T12:09:52;29.90;;;7.40;;
1479;SDS011;732;51.698;4.886;2023-11-19T12:12:34;32.33;;;7.67;;
1479;SDS011;732;51.698;4.886;2023-11-19T12:15:05;37.17;;;7.43;;
1479;SDS011;732;51.698;4.886;2023-11-19T12:17:40;31.60;;;7.60;;
1479;SDS011;732;51.698;4.886;2023-11-19T12:20:19;32.17;;;6.97;;
1479;SDS011;732;51.698;4.886;2023-11-19T12:22:53;40.47;;;7.13;;
1479;SDS011;732;51.698;4.886;2023-11-19T12:25:22;34.10;;;6.43;;
1479;SDS011;732;51.698;4.886;2023-11-19T12:27:50;32.60;;;7.30;;
1479;SDS011;732;51.698;4.886;2023-11-19T12:30:21;31.80;;;7.37;;
1479;SDS011;732;51.698;4.886;2023-11-19T12:32:54;29.17;;;6.50;;
1479;SDS011;732;51.698;4.886;2023-11-19T12:35:22;34.47;;;6.80;;
1479;SDS011;732;51.698;4.886;2023-11-19T12:37:51;29.07;;;7.37;;
1479;SDS011;732;51.698;4.886;2023-11-19T12:40:21;31.17;;;6.07;;
1479;SDS011;732;51.698;4.886;2023-11-19T12:42:51;42.77;;;7.10;;
1479;SDS011;732;51.698;4.886;2023-11-19T12:45:21;44.33;;;8.03;;
1479;SDS011;732;51.698;4.886;2023-11-19T12:48:05;36.17;;;8.00;;
1479;SDS011;732;51.698;4.886;2023-11-19T12:50:49;24.90;;;6.43;;
1479;SDS011;732;51.698;4.886;2023-11-19T12:53:19;31.17;;;6.47;;
1479;SDS011;732;51.698;4.886;2023-11-19T12:55:48;31.60;;;6.30;;
1479;SDS011;732;51.698;4.886;2023-11-19T12:58:29;23.60;;;5.70;;
1479;SDS011;732;51.698;4.886;2023-11-19T13:01:01;25.53;;;5.97;;
1479;SDS011;732;51.698;4.886;2023-11-19T13:03:32;29.23;;;6.50;;
1479;SDS011;732;51.698;4.886;2023-11-19T13:06:02;27.70;;;6.83;;
1479;SDS011;732;51.698;4.886;2023-11-19T13:08:37;28.83;;;6.37;;
1479;SDS011;732;51.698;4.886;2023-11-19T13:11:07;31.47;;;5.97;;
1479;SDS011;732;51.698;4.886;2023-11-19T13:13:55;35.27;;;6.97;;
1479;SDS011;732;51.698;4.886;2023-11-19T13:16:26;34.03;;;5.87;;
1479;SDS011;732;51.698;4.886;2023-11-19T13:18:57;26.00;;;5.73;;
1479;SDS011;732;51.698;4.886;2023-11-19T13:21:27;19.93;;;5.30;;
1479;SDS011;732;51.698;4.886;2023-11-19T13:23:56;31.53;;;6.07;;
1479;SDS011;732;51.698;4.886;2023-11-19T13:26:24;17.40;;;5.20;;
1479;SDS011;732;51.698;4.886;2023-11-19T13:28:53;30.10;;;6.57;;
1479;SDS011;732;51.698;4.886;2023-11-19T13:31:22;33.90;;;6.90;;
1479;SDS011;732;51.698;4.886;2023-11-19T13:33:50;31.83;;;7.67;;
1479;SDS011;732;51.698;4.886;2023-11-19T13:36:20;21.20;;;5.83;;
1479;SDS011;732;51.698;4.886;2023-11-19T13:38:49;27.97;;;5.87;;
1479;SDS011;732;51.698;4.886;2023-11-19T13:41:17;29.20;;;6.57;;
1479;SDS011;732;51.698;4.886;2023-11-19T13:43:46;27.47;;;6.30;;
1479;SDS011;732;51.698;4.886;2023-11-19T13:46:15;32.30;;;6.20;;
1479;SDS011;732;51.698;4.886;2023-11-19T13:48:43;38.20;;;6.33;;
1479;SDS011;732;51.698;4.886;2023-11-19T13:51:12;36.47;;;5.30;;
1479;SDS011;732;51.698;4.886;2023-11-19T13:53:42;27.37;;;6.23;;
1479;SDS011;732;51.698;4.886;2023-11-19T13:56:13;25.33;;;4.90;;
1479;SDS011;732;51.698;4.886;2023-11-19T13:58:42;34.53;;;5.80;;
1479;SDS011;732;51.698;4.886;2023-11-19T14:01:10;26.33;;;5.63;;
1479;SDS011;732;51.698;4.886;2023-11-19T14:03:40;24.07;;;5.57;;
1479;SDS011;732;51.698;4.886;2023-11-19T14:06:09;27.53;;;5.10;;
1479;SDS011;732;51.698;4.886;2023-11-19T14:08:39;33.10;;;5.70;;
1479;SDS011;732;51.698;4.886;2023-11-19T14:11:08;28.43;;;6.37;;
1479;SDS011;732;51.698;4.886;2023-11-19T14:13:37;35.43;;;5.90;;
1479;SDS011;732;51.698;4.886;2023-11-19T14:16:05;34.83;;;6.60;;
1479;SDS011;732;51.698;4.886;2023-11-19T14:18:35;30.80;;;5.77;;
1479;SDS011;732;51.698;4.886;2023-11-19T14:21:05;35.50;;;6.40;;
1479;SDS011;732;51.698;4.886;2023-11-19T14:23:33;22.87;;;5.67;;
1479;SDS011;732;51.698;4.886;2023-11-19T14:26:02;33.60;;;6.50;;
1479;SDS011;732;51.698;4.886;2023-11-19T14:28:33;26.37;;;5.70;;
1479;SDS011;732;51.698;4.886;2023-11-19T14:31:20;27.47;;;6.37;;
1479;SDS011;732;51.698;4.886;2023-11-19T14:33:48;24.20;;;6.10;;
1479;SDS011;732;51.698;4.886;2023-11-19T14:36:17;29.40;;;6.20;;
1479;SDS011;732;51.698;4.886;2023-11-19T14:38:45;31.00;;;6.07;;
1479;SDS011;732;51.698;4.886;2023-11-19T14:41:14;21.27;;;5.30;;
1479;SDS011;732;51.698;4.886;2023-11-19T14:43:43;25.40;;;5.10;;
1479;SDS011;732;51.698;4.886;2023-11-19T14:46:13;22.80;;;5.93;;
1479;SDS011;732;51.698;4.886;2023-11-19T14:48:42;21.30;;;5.93;;
1479;SDS011;732;51.698;4.886;2023-11-19T14:51:10;28.00;;;5.77;;
1479;SDS011;732;51.698;4.886;2023-11-19T14:53:39;24.13;;;6.37;;
1479;SDS011;732;51.698;4.886;2023-11-19T14:56:10;22.43;;;6.07;;
1479;SDS011;732;51.698;4.886;2023-11-19T14:58:39;30.27;;;5.80;;
1479;SDS011;732;51.698;4.886;2023-11-19T15:01:12;21.80;;;5.63;;
1479;SDS011;732;51.698;4.886;2023-11-19T15:03:42;19.60;;;4.93;;
1479;SDS011;732;51.698;4.886;2023-11-19T15:06:14;29.10;;;6.00;;
1479;SDS011;732;51.698;4.886;2023-11-19T15:08:43;18.63;;;4.80;;
1479;SDS011;732;51.698;4.886;2023-11-19T15:11:11;16.87;;;5.23;;
1479;SDS011;732;51.698;4.886;2023-11-19T15:13:39;24.27;;;5.13;;
1479;SDS011;732;51.698;4.886;2023-11-19T15:16:08;28.43;;;5.10;;
1479;SDS011;732;51.698;4.886;2023-11-19T15:18:39;23.87;;;4.53;;
1479;SDS011;732;51.698;4.886;2023-11-19T15:21:08;26.67;;;5.10;;
1479;SDS011;732;51.698;4.886;2023-11-19T15:23:37;34.57;;;5.97;;
1479;SDS011;732;51.698;4.886;2023-11-19T15:26:07;28.30;;;5.27;;
1479;SDS011;732;51.698;4.886;2023-11-19T15:28:37;29.53;;;5.30;;
1479;SDS011;732;51.698;4.886;2023-11-19T15:31:05;21.77;;;5.03;;
1479;SDS011;732;51.698;4.886;2023-11-19T15:33:34;28.07;;;5.00;;
1479;SDS011;732;51.698;4.886;2023-11-19T15:36:04;22.43;;;5.63;;
1479;SDS011;732;51.698;4.886;2023-11-19T15:38:34;30.07;;;4.93;;